sensor_id;sensor_type;location;lat;lon;timestamp;temperature;humidity
84389;DHT22;74589;48.846;2.382;2024-01-16T00:00:18;5.30;1.00
84389;DHT22;74589;48.846;2.382;2024-01-16T00:02:44;5.30;1.00
84389;DHT22;74589;48.846;2.382;2024-01-16T00:05:10;5.20;1.00
84389;DHT22;74589;48.846;2.382;2024-01-16T00:07:39;5.20;1.00
84389;DHT22;74589;48.846;2.382;2024-01-16T00:10:07;5.20;1.00
84389;DHT22;74589;48.846;2.382;2024-01-16T00:12:33;5.20;1.00
84389;DHT22;74589;48.846;2.382;2024-01-16T00:14:59;5.30;1.00
84389;DHT22;74589;48.846;2.382;2024-01-16T00:17:25;5.30;1.00
84389;DHT22;74589;48.846;2.382;2024-01-16T00:19:50;5.30;1.00
84389;DHT22;74589;48.846;2.382;2024-01-16T00:22:16;5.20;1.00
84389;DHT22;74589;48.846;2.382;2024-01-16T00:24:42;5.20;1.00
84389;DHT22;74589;48.846;2.382;2024-01-16T00:27:07;5.10;1.00
84389;DHT22;74589;48.846;2.382;2024-01-16T00:29:33;5.10;1.00
84389;DHT22;74589;48.846;2.382;2024-01-16T00:31:59;5.10;1.00
84389;DHT22;74589;48.846;2.382;2024-01-16T00:34:24;5.20;1.00
84389;DHT22;74589;48.846;2.382;2024-01-16T00:36:50;5.30;1.00
84389;DHT22;74589;48.846;2.382;2024-01-16T00:39:16;5.20;1.00
84389;DHT22;74589;48.846;2.382;2024-01-16T00:41:42;5.20;1.00
84389;DHT22;74589;48.846;2.382;2024-01-16T00:44:07;5.30;1.00
84389;DHT22;74589;48.846;2.382;2024-01-16T00:46:33;5.30;1.00
84389;DHT22;74589;48.846;2.382;2024-01-16T00:48:59;5.30;1.00
84389;DHT22;74589;48.846;2.382;2024-01-16T00:51:24;5.20;1.00
84389;DHT22;74589;48.846;2.382;2024-01-16T00:53:51;5.20;1.00
84389;DHT22;74589;48.846;2.382;2024-01-16T00:56:16;5.10;1.00
84389;DHT22;74589;48.846;2.382;2024-01-16T00:58:42;5.10;1.00
84389;DHT22;74589;48.846;2.382;2024-01-16T01:01:08;5.20;1.00
84389;DHT22;74589;48.846;2.382;2024-01-16T01:03:33;5.40;1.00
84389;DHT22;74589;48.846;2.382;2024-01-16T01:06:00;5.40;1.00
84389;DHT22;74589;48.846;2.382;2024-01-16T01:08:26;5.30;1.00
84389;DHT22;74589;48.846;2.382;2024-01-16T01:10:51;5.20;1.00
84389;DHT22;74589;48.846;2.382;2024-01-16T01:13:17;5.10;1.00
84389;DHT22;74589;48.846;2.382;2024-01-16T01:15:43;5.00;1.00
84389;DHT22;74589;48.846;2.382;2024-01-16T01:18:08;5.00;1.00
84389;DHT22;74589;48.846;2.382;2024-01-16T01:20:34;4.90;1.00
84389;DHT22;74589;48.846;2.382;2024-01-16T01:23:00;4.70;1.00
84389;DHT22;74589;48.846;2.382;2024-01-16T01:25:25;4.80;1.00
84389;DHT22;74589;48.846;2.382;2024-01-16T01:27:51;4.80;1.00
84389;DHT22;74589;48.846;2.382;2024-01-16T01:30:17;4.90;1.00
84389;DHT22;74589;48.846;2.382;2024-01-16T01:32:43;5.00;1.00
84389;DHT22;74589;48.846;2.382;2024-01-16T01:35:09;5.00;1.00
84389;DHT22;74589;48.846;2.382;2024-01-16T01:37:37;5.00;1.00
84389;DHT22;74589;48.846;2.382;2024-01-16T01:40:03;5.00;1.00
84389;DHT22;74589;48.846;2.382;2024-01-16T01:42:28;4.90;1.00
84389;DHT22;74589;48.846;2.382;2024-01-16T01:44:55;4.80;1.00
84389;DHT22;74589;48.846;2.382;2024-01-16T01:47:20;4.80;1.00
84389;DHT22;74589;48.846;2.382;2024-01-16T01:49:46;4.60;1.00
84389;DHT22;74589;48.846;2.382;2024-01-16T01:52:12;4.60;1.00
84389;DHT22;74589;48.846;2.382;2024-01-16T01:54:38;4.60;1.00
84389;DHT22;74589;48.846;2.382;2024-01-16T01:57:05;4.50;1.00
84389;DHT22;74589;48.846;2.382;2024-01-16T01:59:33;4.50;1.00
84389;DHT22;74589;48.846;2.382;2024-01-16T02:01:58;4.40;1.00
84389;DHT22;74589;48.846;2.382;2024-01-16T02:04:25;4.60;1.00
84389;DHT22;74589;48.846;2.382;2024-01-16T02:06:51;4.70;1.00
84389;DHT22;74589;48.846;2.382;2024-01-16T02:09:17;4.90;1.00
84389;DHT22;74589;48.846;2.382;2024-01-16T02:11:43;5.20;1.00
84389;DHT22;74589;48.846;2.382;2024-01-16T02:14:09;5.10;1.00
84389;DHT22;74589;48.846;2.382;2024-01-16T02:16:37;4.90;1.00
84389;DHT22;74589;48.846;2.382;2024-01-16T02:19:06;4.90;1.00
84389;DHT22;74589;48.846;2.382;2024-01-16T02:21:51;4.80;1.00
84389;DHT22;74589;48.846;2.382;2024-01-16T02:24:19;4.60;1.00
84389;DHT22;74589;48.846;2.382;2024-01-16T02:26:45;4.60;1.00
84389;DHT22;74589;48.846;2.382;2024-01-16T02:29:11;4.50;1.00
84389;DHT22;74589;48.846;2.382;2024-01-16T02:31:36;4.40;1.00
84389;DHT22;74589;48.846;2.382;2024-01-16T02:34:03;4.30;1.00
84389;DHT22;74589;48.846;2.382;2024-01-16T02:36:30;4.30;1.00
84389;DHT22;74589;48.846;2.382;2024-01-16T02:38:56;4.20;1.00
84389;DHT22;74589;48.846;2.382;2024-01-16T02:41:22;4.20;1.00
84389;DHT22;74589;48.846;2.382;2024-01-16T02:43:47;4.30;1.00
84389;DHT22;74589;48.846;2.382;2024-01-16T02:46:16;4.30;1.00
84389;DHT22;74589;48.846;2.382;2024-01-16T02:48:42;4.40;1.00
84389;DHT22;74589;48.846;2.382;2024-01-16T02:51:08;4.30;1.00
84389;DHT22;74589;48.846;2.382;2024-01-16T02:53:34;4.20;1.00
84389;DHT22;74589;48.846;2.382;2024-01-16T02:56:00;4.20;1.00
84389;DHT22;74589;48.846;2.382;2024-01-16T02:58:29;4.30;1.00
84389;DHT22;74589;48.846;2.382;2024-01-16T03:00:56;4.30;1.00
84389;DHT22;74589;48.846;2.382;2024-01-16T03:03:22;4.30;1.00
84389;DHT22;74589;48.846;2.382;2024-01-16T03:05:48;4.30;1.00
84389;DHT22;74589;48.846;2.382;2024-01-16T03:08:14;4.40;1.00
84389;DHT22;74589;48.846;2.382;2024-01-16T03:10:40;4.30;1.00
84389;DHT22;74589;48.846;2.382;2024-01-16T03:13:06;4.20;1.00
84389;DHT22;74589;48.846;2.382;2024-01-16T03:15:32;4.20;1.00
84389;DHT22;74589;48.846;2.382;2024-01-16T03:17:58;3.90;1.00
84389;DHT22;74589;48.846;2.382;2024-01-16T03:20:24;4.00;1.10
84389;DHT22;74589;48.846;2.382;2024-01-16T03:22:50;3.90;1.30
84389;DHT22;74589;48.846;2.382;2024-01-16T03:25:19;4.00;1.10
84389;DHT22;74589;48.846;2.382;2024-01-16T03:27:45;4.40;1.00
84389;DHT22;74589;48.846;2.382;2024-01-16T03:30:10;4.10;1.00
84389;DHT22;74589;48.846;2.382;2024-01-16T03:32:37;3.90;1.00
84389;DHT22;74589;48.846;2.382;2024-01-16T03:35:03;3.90;1.20
84389;DHT22;74589;48.846;2.382;2024-01-16T03:37:29;3.90;1.10
84389;DHT22;74589;48.846;2.382;2024-01-16T03:39:55;3.80;1.30
84389;DHT22;74589;48.846;2.382;2024-01-16T03:42:21;3.90;1.40
84389;DHT22;74589;48.846;2.382;2024-01-16T03:44:47;4.00;1.20
84389;DHT22;74589;48.846;2.382;2024-01-16T03:47:12;3.90;1.10
84389;DHT22;74589;48.846;2.382;2024-01-16T03:49:38;3.90;1.30
84389;DHT22;74589;48.846;2.382;2024-01-16T03:52:04;4.10;1.00
84389;DHT22;74589;48.846;2.382;2024-01-16T03:54:30;3.90;1.10
84389;DHT22;74589;48.846;2.382;2024-01-16T03:56:56;3.70;1.50
84389;DHT22;74589;48.846;2.382;2024-01-16T03:59:21;3.70;1.80
84389;DHT22;74589;48.846;2.382;2024-01-16T04:01:47;3.80;1.90
84389;DHT22;74589;48.846;2.382;2024-01-16T04:04:15;3.90;1.50
84389;DHT22;74589;48.846;2.382;2024-01-16T04:06:41;4.00;1.10
84389;DHT22;74589;48.846;2.382;2024-01-16T04:09:08;3.90;1.90
84389;DHT22;74589;48.846;2.382;2024-01-16T04:11:34;4.00;1.00
84389;DHT22;74589;48.846;2.382;2024-01-16T04:14:00;4.00;1.00
84389;DHT22;74589;48.846;2.382;2024-01-16T04:16:26;4.00;1.00
84389;DHT22;74589;48.846;2.382;2024-01-16T04:18:52;3.90;1.00
84389;DHT22;74589;48.846;2.382;2024-01-16T04:21:18;3.70;1.30
84389;DHT22;74589;48.846;2.382;2024-01-16T04:23:44;3.70;1.40
84389;DHT22;74589;48.846;2.382;2024-01-16T04:26:09;3.70;1.20
84389;DHT22;74589;48.846;2.382;2024-01-16T04:28:35;3.50;1.70
84389;DHT22;74589;48.846;2.382;2024-01-16T04:31:03;3.40;2.20
84389;DHT22;74589;48.846;2.382;2024-01-16T04:33:28;3.50;2.10
84389;DHT22;74589;48.846;2.382;2024-01-16T04:35:55;3.40;1.70
84389;DHT22;74589;48.846;2.382;2024-01-16T04:38:20;3.40;2.10
84389;DHT22;74589;48.846;2.382;2024-01-16T04:40:46;3.40;2.10
84389;DHT22;74589;48.846;2.382;2024-01-16T04:43:12;3.50;1.70
84389;DHT22;74589;48.846;2.382;2024-01-16T04:45:37;3.40;1.80
84389;DHT22;74589;48.846;2.382;2024-01-16T04:48:03;3.40;1.90
84389;DHT22;74589;48.846;2.382;2024-01-16T04:50:29;3.50;1.80
84389;DHT22;74589;48.846;2.382;2024-01-16T04:52:58;3.60;1.50
84389;DHT22;74589;48.846;2.382;2024-01-16T04:55:26;3.50;2.00
84389;DHT22;74589;48.846;2.382;2024-01-16T04:57:52;3.60;1.50
84389;DHT22;74589;48.846;2.382;2024-01-16T05:00:18;3.80;1.10
84389;DHT22;74589;48.846;2.382;2024-01-16T05:02:44;3.80;1.00
84389;DHT22;74589;48.846;2.382;2024-01-16T05:05:09;3.70;1.30
84389;DHT22;74589;48.846;2.382;2024-01-16T05:07:35;3.50;1.50
84389;DHT22;74589;48.846;2.382;2024-01-16T05:10:01;3.70;1.30
84389;DHT22;74589;48.846;2.382;2024-01-16T05:12:27;3.70;1.00
84389;DHT22;74589;48.846;2.382;2024-01-16T05:14:52;3.50;1.40
84389;DHT22;74589;48.846;2.382;2024-01-16T05:17:18;3.50;1.80
84389;DHT22;74589;48.846;2.382;2024-01-16T05:19:43;3.50;1.90
84389;DHT22;74589;48.846;2.382;2024-01-16T05:22:10;3.50;1.90
84389;DHT22;74589;48.846;2.382;2024-01-16T05:24:36;3.40;2.00
84389;DHT22;74589;48.846;2.382;2024-01-16T05:27:01;3.40;1.90
84389;DHT22;74589;48.846;2.382;2024-01-16T05:29:27;3.40;2.70
84389;DHT22;74589;48.846;2.382;2024-01-16T05:31:53;3.30;2.20
84389;DHT22;74589;48.846;2.382;2024-01-16T05:34:18;3.40;2.10
84389;DHT22;74589;48.846;2.382;2024-01-16T05:36:44;3.40;2.10
84389;DHT22;74589;48.846;2.382;2024-01-16T05:39:10;3.40;2.00
84389;DHT22;74589;48.846;2.382;2024-01-16T05:41:36;3.30;2.30
84389;DHT22;74589;48.846;2.382;2024-01-16T05:44:01;3.30;2.20
84389;DHT22;74589;48.846;2.382;2024-01-16T05:46:33;3.40;2.30
84389;DHT22;74589;48.846;2.382;2024-01-16T05:48:58;3.40;1.80
84389;DHT22;74589;48.846;2.382;2024-01-16T05:51:27;3.40;1.90
84389;DHT22;74589;48.846;2.382;2024-01-16T05:53:53;3.20;2.20
84389;DHT22;74589;48.846;2.382;2024-01-16T05:56:18;3.20;2.50
84389;DHT22;74589;48.846;2.382;2024-01-16T05:58:44;3.30;2.60
84389;DHT22;74589;48.846;2.382;2024-01-16T06:01:10;3.10;2.50
84389;DHT22;74589;48.846;2.382;2024-01-16T06:03:39;3.10;2.80
84389;DHT22;74589;48.846;2.382;2024-01-16T06:06:05;3.10;2.70
84389;DHT22;74589;48.846;2.382;2024-01-16T06:08:31;3.10;2.60
84389;DHT22;74589;48.846;2.382;2024-01-16T06:10:56;3.20;2.60
84389;DHT22;74589;48.846;2.382;2024-01-16T06:13:22;3.10;2.80
84389;DHT22;74589;48.846;2.382;2024-01-16T06:15:48;3.10;2.60
84389;DHT22;74589;48.846;2.382;2024-01-16T06:18:15;3.10;2.70
84389;DHT22;74589;48.846;2.382;2024-01-16T06:20:40;3.20;2.50
84389;DHT22;74589;48.846;2.382;2024-01-16T06:23:06;3.10;2.80
84389;DHT22;74589;48.846;2.382;2024-01-16T06:25:32;3.10;2.80
84389;DHT22;74589;48.846;2.382;2024-01-16T06:27:57;3.00;2.90
84389;DHT22;74589;48.846;2.382;2024-01-16T06:30:23;3.10;2.80
84389;DHT22;74589;48.846;2.382;2024-01-16T06:32:49;3.10;2.90
84389;DHT22;74589;48.846;2.382;2024-01-16T06:35:16;3.10;2.60
84389;DHT22;74589;48.846;2.382;2024-01-16T06:37:42;3.10;2.40
84389;DHT22;74589;48.846;2.382;2024-01-16T06:40:09;3.10;2.70
84389;DHT22;74589;48.846;2.382;2024-01-16T06:42:35;3.10;2.60
84389;DHT22;74589;48.846;2.382;2024-01-16T06:45:02;3.10;2.80
84389;DHT22;74589;48.846;2.382;2024-01-16T06:47:28;3.00;2.90
84389;DHT22;74589;48.846;2.382;2024-01-16T06:49:54;3.00;3.10
84389;DHT22;74589;48.846;2.382;2024-01-16T06:52:19;3.00;3.20
84389;DHT22;74589;48.846;2.382;2024-01-16T06:54:45;3.00;3.10
84389;DHT22;74589;48.846;2.382;2024-01-16T06:57:11;3.00;3.30
84389;DHT22;74589;48.846;2.382;2024-01-16T06:59:36;3.00;3.30
84389;DHT22;74589;48.846;2.382;2024-01-16T07:02:02;2.90;3.60
84389;DHT22;74589;48.846;2.382;2024-01-16T07:04:29;2.90;3.60
84389;DHT22;74589;48.846;2.382;2024-01-16T07:06:54;2.90;3.70
84389;DHT22;74589;48.846;2.382;2024-01-16T07:09:20;3.10;3.40
84389;DHT22;74589;48.846;2.382;2024-01-16T07:11:47;3.10;3.10
84389;DHT22;74589;48.846;2.382;2024-01-16T07:14:13;3.10;3.30
84389;DHT22;74589;48.846;2.382;2024-01-16T07:16:39;3.10;3.20
84389;DHT22;74589;48.846;2.382;2024-01-16T07:19:04;3.10;3.40
84389;DHT22;74589;48.846;2.382;2024-01-16T07:21:30;3.10;3.50
84389;DHT22;74589;48.846;2.382;2024-01-16T07:23:57;3.10;3.50
84389;DHT22;74589;48.846;2.382;2024-01-16T07:26:23;3.20;3.20
84389;DHT22;74589;48.846;2.382;2024-01-16T07:28:49;3.30;3.20
84389;DHT22;74589;48.846;2.382;2024-01-16T07:31:15;3.30;2.90
84389;DHT22;74589;48.846;2.382;2024-01-16T07:33:42;3.30;2.90
84389;DHT22;74589;48.846;2.382;2024-01-16T07:36:08;3.30;3.00
84389;DHT22;74589;48.846;2.382;2024-01-16T07:38:35;3.40;2.80
84389;DHT22;74589;48.846;2.382;2024-01-16T07:41:01;3.30;3.00
84389;DHT22;74589;48.846;2.382;2024-01-16T07:43:27;3.30;3.00
84389;DHT22;74589;48.846;2.382;2024-01-16T07:45:55;3.30;2.90
84389;DHT22;74589;48.846;2.382;2024-01-16T07:48:20;3.20;2.90
84389;DHT22;74589;48.846;2.382;2024-01-16T07:50:46;3.30;2.90
84389;DHT22;74589;48.846;2.382;2024-01-16T07:53:12;3.40;2.40
84389;DHT22;74589;48.846;2.382;2024-01-16T07:55:37;3.30;2.80
84389;DHT22;74589;48.846;2.382;2024-01-16T07:58:03;3.40;2.60
84389;DHT22;74589;48.846;2.382;2024-01-16T08:00:30;3.50;2.50
84389;DHT22;74589;48.846;2.382;2024-01-16T08:02:56;3.50;2.50
84389;DHT22;74589;48.846;2.382;2024-01-16T08:05:21;3.60;3.20
84389;DHT22;74589;48.846;2.382;2024-01-16T08:07:51;3.70;2.70
84389;DHT22;74589;48.846;2.382;2024-01-16T08:10:16;3.60;2.40
84389;DHT22;74589;48.846;2.382;2024-01-16T08:12:42;3.60;2.80
84389;DHT22;74589;48.846;2.382;2024-01-16T08:15:09;3.60;2.40
84389;DHT22;74589;48.846;2.382;2024-01-16T08:17:35;3.50;2.90
84389;DHT22;74589;48.846;2.382;2024-01-16T08:20:00;3.40;3.10
84389;DHT22;74589;48.846;2.382;2024-01-16T08:22:26;3.50;3.00
84389;DHT22;74589;48.846;2.382;2024-01-16T08:24:52;3.40;2.70
84389;DHT22;74589;48.846;2.382;2024-01-16T08:27:19;3.60;2.30
84389;DHT22;74589;48.846;2.382;2024-01-16T08:29:44;3.50;2.70
84389;DHT22;74589;48.846;2.382;2024-01-16T08:32:10;3.60;2.60
84389;DHT22;74589;48.846;2.382;2024-01-16T08:34:36;3.70;2.90
84389;DHT22;74589;48.846;2.382;2024-01-16T08:37:01;3.70;2.60
84389;DHT22;74589;48.846;2.382;2024-01-16T08:39:29;3.70;2.30
84389;DHT22;74589;48.846;2.382;2024-01-16T08:41:58;3.80;2.30
84389;DHT22;74589;48.846;2.382;2024-01-16T08:44:24;4.00;1.80
84389;DHT22;74589;48.846;2.382;2024-01-16T08:46:49;4.00;1.40
84389;DHT22;74589;48.846;2.382;2024-01-16T08:49:15;3.90;1.70
84389;DHT22;74589;48.846;2.382;2024-01-16T08:51:41;4.20;1.00
84389;DHT22;74589;48.846;2.382;2024-01-16T08:54:07;4.20;1.00
84389;DHT22;74589;48.846;2.382;2024-01-16T08:56:32;4.30;1.00
84389;DHT22;74589;48.846;2.382;2024-01-16T08:58:58;4.40;1.00
84389;DHT22;74589;48.846;2.382;2024-01-16T09:01:23;4.20;1.20
84389;DHT22;74589;48.846;2.382;2024-01-16T09:03:49;4.00;1.00
84389;DHT22;74589;48.846;2.382;2024-01-16T09:06:15;3.80;1.60
84389;DHT22;74589;48.846;2.382;2024-01-16T09:08:41;3.80;1.90
84389;DHT22;74589;48.846;2.382;2024-01-16T09:11:07;3.90;1.20
84389;DHT22;74589;48.846;2.382;2024-01-16T09:13:32;3.90;1.10
84389;DHT22;74589;48.846;2.382;2024-01-16T09:15:59;3.60;1.90
84389;DHT22;74589;48.846;2.382;2024-01-16T09:18:24;3.80;1.60
84389;DHT22;74589;48.846;2.382;2024-01-16T09:20:50;3.60;2.40
84389;DHT22;74589;48.846;2.382;2024-01-16T09:23:16;3.50;2.00
84389;DHT22;74589;48.846;2.382;2024-01-16T09:25:41;3.80;1.40
84389;DHT22;74589;48.846;2.382;2024-01-16T09:28:07;3.60;2.00
84389;DHT22;74589;48.846;2.382;2024-01-16T09:30:32;3.60;2.30
84389;DHT22;74589;48.846;2.382;2024-01-16T09:32:58;3.50;2.60
84389;DHT22;74589;48.846;2.382;2024-01-16T09:35:24;3.60;2.70
84389;DHT22;74589;48.846;2.382;2024-01-16T09:37:50;3.70;2.40
84389;DHT22;74589;48.846;2.382;2024-01-16T09:40:16;3.70;2.30
84389;DHT22;74589;48.846;2.382;2024-01-16T09:42:42;3.70;2.40
84389;DHT22;74589;48.846;2.382;2024-01-16T09:45:09;3.90;3.30
84389;DHT22;74589;48.846;2.382;2024-01-16T09:47:34;4.10;1.80
84389;DHT22;74589;48.846;2.382;2024-01-16T09:50:02;4.30;1.40
84389;DHT22;74589;48.846;2.382;2024-01-16T09:52:29;4.40;1.00
84389;DHT22;74589;48.846;2.382;2024-01-16T09:54:55;4.40;1.00
84389;DHT22;74589;48.846;2.382;2024-01-16T09:57:25;4.50;1.00
84389;DHT22;74589;48.846;2.382;2024-01-16T09:59:55;4.70;1.00
84389;DHT22;74589;48.846;2.382;2024-01-16T10:02:22;4.60;1.00
84389;DHT22;74589;48.846;2.382;2024-01-16T10:04:48;4.80;1.00
84389;DHT22;74589;48.846;2.382;2024-01-16T10:07:15;4.90;1.00
84389;DHT22;74589;48.846;2.382;2024-01-16T10:09:43;4.80;1.00
84389;DHT22;74589;48.846;2.382;2024-01-16T10:12:09;4.90;1.00
84389;DHT22;74589;48.846;2.382;2024-01-16T10:14:36;5.00;1.00
84389;DHT22;74589;48.846;2.382;2024-01-16T10:17:04;5.00;1.00
84389;DHT22;74589;48.846;2.382;2024-01-16T10:19:56;5.20;1.00
84389;DHT22;74589;48.846;2.382;2024-01-16T10:22:24;5.50;1.00
84389;DHT22;74589;48.846;2.382;2024-01-16T10:25:11;5.30;1.00
84389;DHT22;74589;48.846;2.382;2024-01-16T10:27:39;5.40;1.00
84389;DHT22;74589;48.846;2.382;2024-01-16T10:30:05;5.40;1.00
84389;DHT22;74589;48.846;2.382;2024-01-16T10:32:34;5.40;1.00
84389;DHT22;74589;48.846;2.382;2024-01-16T10:35:13;5.40;1.00
84389;DHT22;74589;48.846;2.382;2024-01-16T10:37:52;5.50;1.00
84389;DHT22;74589;48.846;2.382;2024-01-16T10:40:20;5.70;1.00
84389;DHT22;74589;48.846;2.382;2024-01-16T10:42:59;5.80;1.00
84389;DHT22;74589;48.846;2.382;2024-01-16T10:45:26;6.00;1.00
84389;DHT22;74589;48.846;2.382;2024-01-16T10:48:03;6.10;1.00
84389;DHT22;74589;48.846;2.382;2024-01-16T10:50:29;6.10;1.00
84389;DHT22;74589;48.846;2.382;2024-01-16T10:52:55;6.10;1.00
84389;DHT22;74589;48.846;2.382;2024-01-16T10:55:24;6.30;1.00
84389;DHT22;74589;48.846;2.382;2024-01-16T10:57:50;6.30;1.00
84389;DHT22;74589;48.846;2.382;2024-01-16T11:00:21;6.50;1.00
84389;DHT22;74589;48.846;2.382;2024-01-16T11:02:58;6.60;1.00
84389;DHT22;74589;48.846;2.382;2024-01-16T11:05:26;6.70;1.00
84389;DHT22;74589;48.846;2.382;2024-01-16T11:07:55;6.70;1.00
84389;DHT22;74589;48.846;2.382;2024-01-16T11:10:21;6.70;1.00
84389;DHT22;74589;48.846;2.382;2024-01-16T11:12:47;6.70;1.00
84389;DHT22;74589;48.846;2.382;2024-01-16T11:15:15;6.50;1.00
84389;DHT22;74589;48.846;2.382;2024-01-16T11:17:44;6.40;1.00
84389;DHT22;74589;48.846;2.382;2024-01-16T11:20:11;6.50;1.00
84389;DHT22;74589;48.846;2.382;2024-01-16T11:22:41;6.50;1.00
84389;DHT22;74589;48.846;2.382;2024-01-16T11:25:11;6.70;1.00
84389;DHT22;74589;48.846;2.382;2024-01-16T11:27:38;6.50;1.00
84389;DHT22;74589;48.846;2.382;2024-01-16T11:30:09;6.50;1.00
84389;DHT22;74589;48.846;2.382;2024-01-16T11:32:38;6.70;1.00
84389;DHT22;74589;48.846;2.382;2024-01-16T11:35:08;6.80;1.00
84389;DHT22;74589;48.846;2.382;2024-01-16T11:37:35;6.70;1.00
84389;DHT22;74589;48.846;2.382;2024-01-16T11:42:46;6.80;1.00
84389;DHT22;74589;48.846;2.382;2024-01-16T11:48:12;6.90;1.00
84389;DHT22;74589;48.846;2.382;2024-01-16T11:50:38;6.90;1.00
84389;DHT22;74589;48.846;2.382;2024-01-16T11:53:03;6.90;1.00
84389;DHT22;74589;48.846;2.382;2024-01-16T11:56:21;7.00;1.00
84389;DHT22;74589;48.846;2.382;2024-01-16T12:00:51;6.80;1.00
84389;DHT22;74589;48.846;2.382;2024-01-16T12:03:20;6.80;1.00
84389;DHT22;74589;48.846;2.382;2024-01-16T12:06:06;6.80;1.00
84389;DHT22;74589;48.846;2.382;2024-01-16T12:08:33;7.00;1.00
84389;DHT22;74589;48.846;2.382;2024-01-16T12:10:59;6.90;1.00
84389;DHT22;74589;48.846;2.382;2024-01-16T12:13:25;6.90;1.00
84389;DHT22;74589;48.846;2.382;2024-01-16T12:16:03;7.00;1.00
84389;DHT22;74589;48.846;2.382;2024-01-16T12:18:32;7.00;1.00
84389;DHT22;74589;48.846;2.382;2024-01-16T12:20:57;7.20;1.00
84389;DHT22;74589;48.846;2.382;2024-01-16T12:23:32;7.50;1.00
84389;DHT22;74589;48.846;2.382;2024-01-16T12:25:59;7.50;1.00
84389;DHT22;74589;48.846;2.382;2024-01-16T12:28:28;7.20;1.00
84389;DHT22;74589;48.846;2.382;2024-01-16T12:30:54;7.00;1.00
84389;DHT22;74589;48.846;2.382;2024-01-16T12:33:22;7.10;1.00
84389;DHT22;74589;48.846;2.382;2024-01-16T12:35:48;6.80;1.00
84389;DHT22;74589;48.846;2.382;2024-01-16T12:38:14;6.80;1.00
84389;DHT22;74589;48.846;2.382;2024-01-16T12:40:49;6.80;1.00
84389;DHT22;74589;48.846;2.382;2024-01-16T12:43:18;6.90;1.00
84389;DHT22;74589;48.846;2.382;2024-01-16T12:45:45;7.00;1.00
84389;DHT22;74589;48.846;2.382;2024-01-16T12:48:11;7.50;1.00
84389;DHT22;74589;48.846;2.382;2024-01-16T12:50:37;7.40;1.00
84389;DHT22;74589;48.846;2.382;2024-01-16T12:53:10;7.40;1.00
84389;DHT22;74589;48.846;2.382;2024-01-16T12:55:38;7.20;1.00
84389;DHT22;74589;48.846;2.382;2024-01-16T12:58:18;7.00;1.00
84389;DHT22;74589;48.846;2.382;2024-01-16T13:00:47;7.00;1.00
84389;DHT22;74589;48.846;2.382;2024-01-16T13:03:26;6.90;1.00
84389;DHT22;74589;48.846;2.382;2024-01-16T13:05:58;6.80;1.00
84389;DHT22;74589;48.846;2.382;2024-01-16T13:08:25;6.90;1.00
84389;DHT22;74589;48.846;2.382;2024-01-16T13:11:08;6.60;1.00
84389;DHT22;74589;48.846;2.382;2024-01-16T13:13:35;6.50;1.00
84389;DHT22;74589;48.846;2.382;2024-01-16T13:16:03;6.50;1.00
84389;DHT22;74589;48.846;2.382;2024-01-16T13:18:32;6.80;1.00
84389;DHT22;74589;48.846;2.382;2024-01-16T13:21:00;6.90;1.00
84389;DHT22;74589;48.846;2.382;2024-01-16T13:23:27;6.90;1.00
84389;DHT22;74589;48.846;2.382;2024-01-16T13:25:53;6.90;1.00
84389;DHT22;74589;48.846;2.382;2024-01-16T13:28:21;7.10;1.00
84389;DHT22;74589;48.846;2.382;2024-01-16T13:30:48;7.10;1.00
84389;DHT22;74589;48.846;2.382;2024-01-16T13:33:14;7.20;1.00
84389;DHT22;74589;48.846;2.382;2024-01-16T13:35:43;7.30;1.00
84389;DHT22;74589;48.846;2.382;2024-01-16T13:38:09;7.30;1.00
84389;DHT22;74589;48.846;2.382;2024-01-16T13:40:36;7.70;1.00
84389;DHT22;74589;48.846;2.382;2024-01-16T13:43:03;7.80;1.00
84389;DHT22;74589;48.846;2.382;2024-01-16T13:45:29;7.70;1.00
84389;DHT22;74589;48.846;2.382;2024-01-16T13:47:55;7.40;1.00
84389;DHT22;74589;48.846;2.382;2024-01-16T13:50:21;7.20;1.00
84389;DHT22;74589;48.846;2.382;2024-01-16T13:52:47;7.30;1.00
84389;DHT22;74589;48.846;2.382;2024-01-16T13:55:13;7.30;1.00
84389;DHT22;74589;48.846;2.382;2024-01-16T13:57:39;7.40;1.00
84389;DHT22;74589;48.846;2.382;2024-01-16T14:00:07;7.60;1.00
84389;DHT22;74589;48.846;2.382;2024-01-16T14:02:33;7.80;1.00
84389;DHT22;74589;48.846;2.382;2024-01-16T14:05:04;7.70;1.00
84389;DHT22;74589;48.846;2.382;2024-01-16T14:07:31;7.60;1.00
84389;DHT22;74589;48.846;2.382;2024-01-16T14:09:57;7.50;1.00
84389;DHT22;74589;48.846;2.382;2024-01-16T14:12:23;7.70;1.00
84389;DHT22;74589;48.846;2.382;2024-01-16T14:14:50;7.40;1.00
84389;DHT22;74589;48.846;2.382;2024-01-16T14:17:16;7.40;1.00
84389;DHT22;74589;48.846;2.382;2024-01-16T14:19:42;7.60;1.00
84389;DHT22;74589;48.846;2.382;2024-01-16T14:22:08;7.80;1.00
84389;DHT22;74589;48.846;2.382;2024-01-16T14:24:34;7.60;1.00
84389;DHT22;74589;48.846;2.382;2024-01-16T14:27:00;7.30;1.00
84389;DHT22;74589;48.846;2.382;2024-01-16T14:29:25;7.30;1.00
84389;DHT22;74589;48.846;2.382;2024-01-16T14:31:52;7.10;1.00
84389;DHT22;74589;48.846;2.382;2024-01-16T14:34:18;7.00;1.00
84389;DHT22;74589;48.846;2.382;2024-01-16T14:36:46;6.90;1.00
84389;DHT22;74589;48.846;2.382;2024-01-16T14:39:11;6.90;1.00
84389;DHT22;74589;48.846;2.382;2024-01-16T14:41:41;7.10;1.00
84389;DHT22;74589;48.846;2.382;2024-01-16T14:44:09;7.50;1.00
84389;DHT22;74589;48.846;2.382;2024-01-16T14:46:39;7.30;1.00
84389;DHT22;74589;48.846;2.382;2024-01-16T14:49:05;7.20;1.00
84389;DHT22;74589;48.846;2.382;2024-01-16T14:51:31;7.20;1.00
84389;DHT22;74589;48.846;2.382;2024-01-16T14:53:57;7.30;1.00
84389;DHT22;74589;48.846;2.382;2024-01-16T14:56:23;7.30;1.00
84389;DHT22;74589;48.846;2.382;2024-01-16T14:58:48;7.30;1.00
84389;DHT22;74589;48.846;2.382;2024-01-16T15:01:14;7.70;1.00
84389;DHT22;74589;48.846;2.382;2024-01-16T15:03:42;7.40;1.00
84389;DHT22;74589;48.846;2.382;2024-01-16T15:06:07;7.30;1.00
84389;DHT22;74589;48.846;2.382;2024-01-16T15:08:36;7.40;1.00
84389;DHT22;74589;48.846;2.382;2024-01-16T15:11:02;7.30;1.00
84389;DHT22;74589;48.846;2.382;2024-01-16T15:13:30;7.00;1.00
84389;DHT22;74589;48.846;2.382;2024-01-16T15:15:55;6.90;1.00
84389;DHT22;74589;48.846;2.382;2024-01-16T15:18:21;6.80;1.00
84389;DHT22;74589;48.846;2.382;2024-01-16T15:20:47;6.80;1.00
84389;DHT22;74589;48.846;2.382;2024-01-16T15:23:13;6.50;1.00
84389;DHT22;74589;48.846;2.382;2024-01-16T15:25:38;6.40;1.00
84389;DHT22;74589;48.846;2.382;2024-01-16T15:28:04;6.40;1.00
84389;DHT22;74589;48.846;2.382;2024-01-16T15:30:30;6.30;1.00
84389;DHT22;74589;48.846;2.382;2024-01-16T15:33:01;6.10;1.00
84389;DHT22;74589;48.846;2.382;2024-01-16T15:35:29;6.40;1.00
84389;DHT22;74589;48.846;2.382;2024-01-16T15:37:55;6.80;1.00
84389;DHT22;74589;48.846;2.382;2024-01-16T15:40:20;6.70;1.00
84389;DHT22;74589;48.846;2.382;2024-01-16T15:42:46;6.50;1.00
84389;DHT22;74589;48.846;2.382;2024-01-16T15:45:12;6.50;1.00
84389;DHT22;74589;48.846;2.382;2024-01-16T15:47:38;6.40;1.00
84389;DHT22;74589;48.846;2.382;2024-01-16T15:50:05;6.50;1.00
84389;DHT22;74589;48.846;2.382;2024-01-16T15:52:31;6.40;1.00
84389;DHT22;74589;48.846;2.382;2024-01-16T15:54:57;6.30;1.00
84389;DHT22;74589;48.846;2.382;2024-01-16T15:57:23;6.20;1.00
84389;DHT22;74589;48.846;2.382;2024-01-16T15:59:49;6.30;1.00
84389;DHT22;74589;48.846;2.382;2024-01-16T16:02:14;6.20;1.00
84389;DHT22;74589;48.846;2.382;2024-01-16T16:04:40;6.00;1.00
84389;DHT22;74589;48.846;2.382;2024-01-16T16:07:07;6.10;1.00